sensor_id;sensor_type;location;lat;lon;timestamp;temperature;humidity
40257;DHT22;25977;45.462;9.210;2023-04-25T00:01:39;17.00;74.80
40257;DHT22;25977;45.462;9.210;2023-04-25T00:04:05;17.00;74.90
40257;DHT22;25977;45.462;9.210;2023-04-25T00:06:34;17.00;74.90
40257;DHT22;25977;45.462;9.210;2023-04-25T00:09:02;17.00;74.50
40257;DHT22;25977;45.462;9.210;2023-04-25T00:11:29;17.00;74.60
40257;DHT22;25977;45.462;9.210;2023-04-25T00:13:56;17.00;74.50
40257;DHT22;25977;45.462;9.210;2023-04-25T00:16:22;16.90;74.50
40257;DHT22;25977;45.462;9.210;2023-04-25T00:18:49;16.80;74.20
40257;DHT22;25977;45.462;9.210;2023-04-25T00:21:18;16.90;74.40
40257;DHT22;25977;45.462;9.210;2023-04-25T00:23:45;16.80;74.40
40257;DHT22;25977;45.462;9.210;2023-04-25T00:26:11;16.60;74.90
40257;DHT22;25977;45.462;9.210;2023-04-25T00:28:37;16.70;74.60
40257;DHT22;25977;45.462;9.210;2023-04-25T00:31:03;16.80;74.40
40257;DHT22;25977;45.462;9.210;2023-04-25T00:33:29;16.90;74.70
40257;DHT22;25977;45.462;9.210;2023-04-25T00:35:55;16.90;74.10
40257;DHT22;25977;45.462;9.210;2023-04-25T00:38:21;16.90;74.10
40257;DHT22;25977;45.462;9.210;2023-04-25T00:40:47;16.80;74.00
40257;DHT22;25977;45.462;9.210;2023-04-25T00:43:13;16.80;74.20
40257;DHT22;25977;45.462;9.210;2023-04-25T00:45:39;16.70;74.20
40257;DHT22;25977;45.462;9.210;2023-04-25T00:48:05;16.70;74.20
40257;DHT22;25977;45.462;9.210;2023-04-25T00:50:33;16.70;74.10
40257;DHT22;25977;45.462;9.210;2023-04-25T00:52:59;16.70;73.90
40257;DHT22;25977;45.462;9.210;2023-04-25T00:55:26;16.90;73.80
40257;DHT22;25977;45.462;9.210;2023-04-25T00:57:51;17.00;73.60
40257;DHT22;25977;45.462;9.210;2023-04-25T01:00:18;16.90;73.40
40257;DHT22;25977;45.462;9.210;2023-04-25T01:02:44;16.90;73.30
40257;DHT22;25977;45.462;9.210;2023-04-25T01:05:10;16.90;73.40
40257;DHT22;25977;45.462;9.210;2023-04-25T01:07:37;16.80;73.40
40257;DHT22;25977;45.462;9.210;2023-04-25T01:10:04;16.80;73.40
40257;DHT22;25977;45.462;9.210;2023-04-25T01:12:30;16.80;73.50
40257;DHT22;25977;45.462;9.210;2023-04-25T01:14:56;16.80;73.50
40257;DHT22;25977;45.462;9.210;2023-04-25T01:17:22;16.80;73.50
40257;DHT22;25977;45.462;9.210;2023-04-25T01:19:48;16.60;73.90
40257;DHT22;25977;45.462;9.210;2023-04-25T01:22:14;16.50;74.10
40257;DHT22;25977;45.462;9.210;2023-04-25T01:24:40;16.10;74.90
40257;DHT22;25977;45.462;9.210;2023-04-25T01:27:08;16.00;75.20
40257;DHT22;25977;45.462;9.210;2023-04-25T01:29:35;16.20;74.90
40257;DHT22;25977;45.462;9.210;2023-04-25T01:32:01;16.20;74.70
40257;DHT22;25977;45.462;9.210;2023-04-25T01:34:28;16.30;74.50
40257;DHT22;25977;45.462;9.210;2023-04-25T01:36:59;16.30;74.90
40257;DHT22;25977;45.462;9.210;2023-04-25T01:39:25;16.20;74.50
40257;DHT22;25977;45.462;9.210;2023-04-25T01:41:51;16.50;74.40
40257;DHT22;25977;45.462;9.210;2023-04-25T01:44:17;16.40;74.40
40257;DHT22;25977;45.462;9.210;2023-04-25T01:46:43;16.50;74.20
40257;DHT22;25977;45.462;9.210;2023-04-25T01:49:10;16.20;74.80
40257;DHT22;25977;45.462;9.210;2023-04-25T01:51:36;16.30;74.70
40257;DHT22;25977;45.462;9.210;2023-04-25T01:54:02;16.20;74.90
40257;DHT22;25977;45.462;9.210;2023-04-25T01:56:32;16.30;74.70
40257;DHT22;25977;45.462;9.210;2023-04-25T01:58:59;16.30;74.80
40257;DHT22;25977;45.462;9.210;2023-04-25T02:01:46;16.30;75.00
40257;DHT22;25977;45.462;9.210;2023-04-25T02:04:20;16.40;74.90
40257;DHT22;25977;45.462;9.210;2023-04-25T02:06:47;16.40;74.70
40257;DHT22;25977;45.462;9.210;2023-04-25T02:09:13;16.00;75.30
40257;DHT22;25977;45.462;9.210;2023-04-25T02:11:46;15.90;75.90
40257;DHT22;25977;45.462;9.210;2023-04-25T02:14:38;16.10;75.80
40257;DHT22;25977;45.462;9.210;2023-04-25T02:17:16;16.10;75.80
40257;DHT22;25977;45.462;9.210;2023-04-25T02:19:42;16.30;75.20
40257;DHT22;25977;45.462;9.210;2023-04-25T02:22:07;16.40;75.00
40257;DHT22;25977;45.462;9.210;2023-04-25T02:24:33;16.30;75.10
40257;DHT22;25977;45.462;9.210;2023-04-25T02:27:00;16.40;75.20
40257;DHT22;25977;45.462;9.210;2023-04-25T02:29:26;16.20;75.20
40257;DHT22;25977;45.462;9.210;2023-04-25T02:31:51;16.00;75.40
40257;DHT22;25977;45.462;9.210;2023-04-25T02:34:17;15.90;76.00
40257;DHT22;25977;45.462;9.210;2023-04-25T02:36:43;16.10;75.60
40257;DHT22;25977;45.462;9.210;2023-04-25T02:39:08;16.20;75.50
40257;DHT22;25977;45.462;9.210;2023-04-25T02:41:34;16.10;75.70
40257;DHT22;25977;45.462;9.210;2023-04-25T02:44:00;16.00;76.20
40257;DHT22;25977;45.462;9.210;2023-04-25T02:46:25;16.00;76.00
40257;DHT22;25977;45.462;9.210;2023-04-25T02:48:51;16.10;75.90
40257;DHT22;25977;45.462;9.210;2023-04-25T02:51:17;15.90;76.00
40257;DHT22;25977;45.462;9.210;2023-04-25T02:53:43;15.50;77.20
40257;DHT22;25977;45.462;9.210;2023-04-25T02:56:08;15.60;77.30
40257;DHT22;25977;45.462;9.210;2023-04-25T02:58:34;15.60;77.20
40257;DHT22;25977;45.462;9.210;2023-04-25T03:01:00;15.60;77.60
40257;DHT22;25977;45.462;9.210;2023-04-25T03:03:26;15.80;77.40
40257;DHT22;25977;45.462;9.210;2023-04-25T03:05:51;15.80;77.20
40257;DHT22;25977;45.462;9.210;2023-04-25T03:08:23;15.50;77.80
40257;DHT22;25977;45.462;9.210;2023-04-25T03:10:50;15.50;77.90
40257;DHT22;25977;45.462;9.210;2023-04-25T03:13:17;15.50;78.10
40257;DHT22;25977;45.462;9.210;2023-04-25T03:15:43;15.70;77.80
40257;DHT22;25977;45.462;9.210;2023-04-25T03:18:09;15.90;77.60
40257;DHT22;25977;45.462;9.210;2023-04-25T03:20:35;15.90;77.30
40257;DHT22;25977;45.462;9.210;2023-04-25T03:23:02;15.90;77.20
40257;DHT22;25977;45.462;9.210;2023-04-25T03:25:29;15.50;78.20
40257;DHT22;25977;45.462;9.210;2023-04-25T03:27:54;15.70;77.90
40257;DHT22;25977;45.462;9.210;2023-04-25T03:30:21;15.80;77.70
40257;DHT22;25977;45.462;9.210;2023-04-25T03:32:48;15.80;77.50
40257;DHT22;25977;45.462;9.210;2023-04-25T03:35:16;15.90;77.40
40257;DHT22;25977;45.462;9.210;2023-04-25T03:37:42;15.90;77.40
40257;DHT22;25977;45.462;9.210;2023-04-25T03:40:15;15.80;77.30
40257;DHT22;25977;45.462;9.210;2023-04-25T03:43:00;15.80;78.00
40257;DHT22;25977;45.462;9.210;2023-04-25T03:45:25;15.80;77.50
40257;DHT22;25977;45.462;9.210;2023-04-25T03:47:51;15.80;77.40
40257;DHT22;25977;45.462;9.210;2023-04-25T03:50:17;15.80;77.40
40257;DHT22;25977;45.462;9.210;2023-04-25T03:52:43;15.70;77.50
40257;DHT22;25977;45.462;9.210;2023-04-25T03:55:09;15.80;77.50
40257;DHT22;25977;45.462;9.210;2023-04-25T03:57:36;15.80;77.40
40257;DHT22;25977;45.462;9.210;2023-04-25T04:00:02;15.80;77.50
40257;DHT22;25977;45.462;9.210;2023-04-25T04:02:38;15.70;77.30
40257;DHT22;25977;45.462;9.210;2023-04-25T04:05:05;15.80;77.40
40257;DHT22;25977;45.462;9.210;2023-04-25T04:07:34;15.80;77.40
40257;DHT22;25977;45.462;9.210;2023-04-25T04:10:06;15.70;77.70
40257;DHT22;25977;45.462;9.210;2023-04-25T04:12:36;15.50;77.80
40257;DHT22;25977;45.462;9.210;2023-04-25T04:15:03;15.20;78.70
40257;DHT22;25977;45.462;9.210;2023-04-25T04:17:30;15.30;78.90
40257;DHT22;25977;45.462;9.210;2023-04-25T04:19:57;15.40;78.60
40257;DHT22;25977;45.462;9.210;2023-04-25T04:22:23;15.30;78.60
40257;DHT22;25977;45.462;9.210;2023-04-25T04:24:51;15.50;78.60
40257;DHT22;25977;45.462;9.210;2023-04-25T04:27:31;15.60;78.30
40257;DHT22;25977;45.462;9.210;2023-04-25T04:30:15;15.70;78.00
40257;DHT22;25977;45.462;9.210;2023-04-25T04:32:57;15.70;78.00
40257;DHT22;25977;45.462;9.210;2023-04-25T04:35:23;15.50;78.30
40257;DHT22;25977;45.462;9.210;2023-04-25T04:37:50;15.60;78.30
40257;DHT22;25977;45.462;9.210;2023-04-25T04:40:18;15.70;78.20
40257;DHT22;25977;45.462;9.210;2023-04-25T04:42:50;15.80;77.80
40257;DHT22;25977;45.462;9.210;2023-04-25T04:45:41;15.90;77.50
40257;DHT22;25977;45.462;9.210;2023-04-25T04:48:16;15.90;77.30
40257;DHT22;25977;45.462;9.210;2023-04-25T04:51:00;15.80;77.40
40257;DHT22;25977;45.462;9.210;2023-04-25T04:53:44;15.80;77.40
40257;DHT22;25977;45.462;9.210;2023-04-25T04:56:19;15.90;77.40
40257;DHT22;25977;45.462;9.210;2023-04-25T04:59:04;15.90;77.20
40257;DHT22;25977;45.462;9.210;2023-04-25T05:02:02;15.80;77.10
40257;DHT22;25977;45.462;9.210;2023-04-25T05:05:07;15.70;77.30
40257;DHT22;25977;45.462;9.210;2023-04-25T05:07:51;15.70;77.20
40257;DHT22;25977;45.462;9.210;2023-04-25T05:10:26;15.70;77.70
40257;DHT22;25977;45.462;9.210;2023-04-25T05:13:03;15.90;77.40
40257;DHT22;25977;45.462;9.210;2023-04-25T05:15:43;15.90;77.00
40257;DHT22;25977;45.462;9.210;2023-04-25T05:18:34;15.80;77.30
40257;DHT22;25977;45.462;9.210;2023-04-25T05:21:29;15.80;77.60
40257;DHT22;25977;45.462;9.210;2023-04-25T05:24:06;16.00;77.20
40257;DHT22;25977;45.462;9.210;2023-04-25T05:26:34;15.80;76.90
40257;DHT22;25977;45.462;9.210;2023-04-25T05:29:11;15.90;77.10
40257;DHT22;25977;45.462;9.210;2023-04-25T05:31:59;16.10;76.60
40257;DHT22;25977;45.462;9.210;2023-04-25T05:34:25;16.20;76.30
40257;DHT22;25977;45.462;9.210;2023-04-25T05:36:56;16.30;76.00
40257;DHT22;25977;45.462;9.210;2023-04-25T05:39:23;16.30;75.90
40257;DHT22;25977;45.462;9.210;2023-04-25T05:42:07;16.30;75.90
40257;DHT22;25977;45.462;9.210;2023-04-25T05:44:42;16.40;75.70
40257;DHT22;25977;45.462;9.210;2023-04-25T05:47:19;16.80;75.30
40257;DHT22;25977;45.462;9.210;2023-04-25T05:50:03;17.60;74.40
40257;DHT22;25977;45.462;9.210;2023-04-25T05:52:42;19.10;71.20
40257;DHT22;25977;45.462;9.210;2023-04-25T05:55:23;20.80;67.40
40257;DHT22;25977;45.462;9.210;2023-04-25T05:57:50;22.20;64.00
40257;DHT22;25977;45.462;9.210;2023-04-25T06:00:16;23.20;61.60
40257;DHT22;25977;45.462;9.210;2023-04-25T06:02:44;23.40;58.70
40257;DHT22;25977;45.462;9.210;2023-04-25T06:05:12;24.40;58.30
40257;DHT22;25977;45.462;9.210;2023-04-25T06:07:38;24.80;57.20
40257;DHT22;25977;45.462;9.210;2023-04-25T06:10:04;25.40;56.40
40257;DHT22;25977;45.462;9.210;2023-04-25T06:12:32;25.90;55.30
40257;DHT22;25977;45.462;9.210;2023-04-25T06:14:59;26.40;54.40
40257;DHT22;25977;45.462;9.210;2023-04-25T06:17:25;26.70;53.30
40257;DHT22;25977;45.462;9.210;2023-04-25T06:19:51;26.90;53.10
40257;DHT22;25977;45.462;9.210;2023-04-25T06:22:17;27.20;52.70
40257;DHT22;25977;45.462;9.210;2023-04-25T06:24:43;27.70;51.70
40257;DHT22;25977;45.462;9.210;2023-04-25T06:27:11;28.10;51.50
40257;DHT22;25977;45.462;9.210;2023-04-25T06:29:36;28.60;50.80
40257;DHT22;25977;45.462;9.210;2023-04-25T06:32:02;28.80;50.10
40257;DHT22;25977;45.462;9.210;2023-04-25T06:34:28;28.50;50.40
40257;DHT22;25977;45.462;9.210;2023-04-25T06:36:54;28.40;50.50
40257;DHT22;25977;45.462;9.210;2023-04-25T06:39:20;29.00;49.90
40257;DHT22;25977;45.462;9.210;2023-04-25T06:41:48;28.80;49.60
40257;DHT22;25977;45.462;9.210;2023-04-25T06:44:34;29.10;49.50
40257;DHT22;25977;45.462;9.210;2023-04-25T06:47:00;29.30;48.70
40257;DHT22;25977;45.462;9.210;2023-04-25T06:49:25;29.40;48.80
40257;DHT22;25977;45.462;9.210;2023-04-25T06:51:51;29.20;48.90
40257;DHT22;25977;45.462;9.210;2023-04-25T06:54:17;29.00;49.00
40257;DHT22;25977;45.462;9.210;2023-04-25T06:56:53;28.90;49.10
40257;DHT22;25977;45.462;9.210;2023-04-25T06:59:19;29.20;48.80
40257;DHT22;25977;45.462;9.210;2023-04-25T07:01:45;28.90;49.00
40257;DHT22;25977;45.462;9.210;2023-04-25T07:04:25;28.70;48.70
40257;DHT22;25977;45.462;9.210;2023-04-25T07:06:54;26.90;49.90
40257;DHT22;25977;45.462;9.210;2023-04-25T07:09:27;26.80;50.90
40257;DHT22;25977;45.462;9.210;2023-04-25T07:11:54;25.90;51.60
40257;DHT22;25977;45.462;9.210;2023-04-25T07:14:20;25.50;52.00
40257;DHT22;25977;45.462;9.210;2023-04-25T07:16:46;25.20;52.80
40257;DHT22;25977;45.462;9.210;2023-04-25T07:19:12;24.10;53.90
40257;DHT22;25977;45.462;9.210;2023-04-25T07:21:38;23.70;55.30
40257;DHT22;25977;45.462;9.210;2023-04-25T07:24:05;23.40;56.00
40257;DHT22;25977;45.462;9.210;2023-04-25T07:26:35;23.10;56.60
40257;DHT22;25977;45.462;9.210;2023-04-25T07:29:23;22.90;57.40
40257;DHT22;25977;45.462;9.210;2023-04-25T07:31:50;22.40;57.80
40257;DHT22;25977;45.462;9.210;2023-04-25T07:34:15;22.30;58.50
40257;DHT22;25977;45.462;9.210;2023-04-25T07:36:41;22.10;58.90
40257;DHT22;25977;45.462;9.210;2023-04-25T07:39:07;22.00;59.60
40257;DHT22;25977;45.462;9.210;2023-04-25T07:41:34;22.10;59.40
40257;DHT22;25977;45.462;9.210;2023-04-25T07:44:00;22.20;59.30
40257;DHT22;25977;45.462;9.210;2023-04-25T07:46:26;22.30;59.40
40257;DHT22;25977;45.462;9.210;2023-04-25T07:48:52;22.30;59.30
40257;DHT22;25977;45.462;9.210;2023-04-25T07:51:18;22.10;59.40
40257;DHT22;25977;45.462;9.210;2023-04-25T07:53:46;21.70;59.60
40257;DHT22;25977;45.462;9.210;2023-04-25T07:56:14;21.40;60.70
40257;DHT22;25977;45.462;9.210;2023-04-25T07:58:43;21.50;60.70
40257;DHT22;25977;45.462;9.210;2023-04-25T08:01:12;21.10;61.30
40257;DHT22;25977;45.462;9.210;2023-04-25T08:03:49;21.40;61.20
40257;DHT22;25977;45.462;9.210;2023-04-25T08:06:21;21.80;60.80
40257;DHT22;25977;45.462;9.210;2023-04-25T08:08:56;22.00;60.30
40257;DHT22;25977;45.462;9.210;2023-04-25T08:11:29;22.10;59.70
40257;DHT22;25977;45.462;9.210;2023-04-25T08:13:55;21.60;60.80
40257;DHT22;25977;45.462;9.210;2023-04-25T08:16:21;21.50;61.70
40257;DHT22;25977;45.462;9.210;2023-04-25T08:18:47;21.70;61.40
40257;DHT22;25977;45.462;9.210;2023-04-25T08:21:13;21.90;61.30
40257;DHT22;25977;45.462;9.210;2023-04-25T08:23:39;22.00;61.10
40257;DHT22;25977;45.462;9.210;2023-04-25T08:26:12;22.10;61.00
40257;DHT22;25977;45.462;9.210;2023-04-25T08:28:38;21.50;62.10
40257;DHT22;25977;45.462;9.210;2023-04-25T08:31:04;21.70;62.30
40257;DHT22;25977;45.462;9.210;2023-04-25T08:33:38;21.80;61.80
40257;DHT22;25977;45.462;9.210;2023-04-25T08:36:27;22.00;61.20
40257;DHT22;25977;45.462;9.210;2023-04-25T08:38:54;22.10;60.80
40257;DHT22;25977;45.462;9.210;2023-04-25T08:41:21;22.00;60.20
40257;DHT22;25977;45.462;9.210;2023-04-25T08:43:49;22.10;60.30
40257;DHT22;25977;45.462;9.210;2023-04-25T08:46:18;22.00;60.00
40257;DHT22;25977;45.462;9.210;2023-04-25T08:49:01;21.20;59.90
40257;DHT22;25977;45.462;9.210;2023-04-25T08:51:32;21.20;59.10
40257;DHT22;25977;45.462;9.210;2023-04-25T08:54:12;21.20;60.70
40257;DHT22;25977;45.462;9.210;2023-04-25T08:56:39;21.20;60.50
40257;DHT22;25977;45.462;9.210;2023-04-25T08:59:06;21.40;59.80
40257;DHT22;25977;45.462;9.210;2023-04-25T09:01:34;21.60;59.50
40257;DHT22;25977;45.462;9.210;2023-04-25T09:04:04;21.70;59.50
40257;DHT22;25977;45.462;9.210;2023-04-25T09:06:30;21.00;60.20
40257;DHT22;25977;45.462;9.210;2023-04-25T09:09:05;21.20;60.40
40257;DHT22;25977;45.462;9.210;2023-04-25T09:11:32;21.30;60.30
40257;DHT22;25977;45.462;9.210;2023-04-25T09:14:17;21.30;60.10
40257;DHT22;25977;45.462;9.210;2023-04-25T09:17:02;21.20;60.10
40257;DHT22;25977;45.462;9.210;2023-04-25T09:19:40;20.50;60.50
40257;DHT22;25977;45.462;9.210;2023-04-25T09:22:14;20.40;61.50
40257;DHT22;25977;45.462;9.210;2023-04-25T09:24:44;20.30;61.70
40257;DHT22;25977;45.462;9.210;2023-04-25T09:27:13;20.40;61.30
40257;DHT22;25977;45.462;9.210;2023-04-25T09:29:43;20.50;61.50
40257;DHT22;25977;45.462;9.210;2023-04-25T09:34:40;20.40;62.10
40257;DHT22;25977;45.462;9.210;2023-04-25T09:37:11;20.60;61.90
40257;DHT22;25977;45.462;9.210;2023-04-25T09:40:10;20.50;61.60
40257;DHT22;25977;45.462;9.210;2023-04-25T09:43:20;20.60;61.70
40257;DHT22;25977;45.462;9.210;2023-04-25T09:45:50;20.70;61.00
40257;DHT22;25977;45.462;9.210;2023-04-25T09:48:21;20.80;60.70
40257;DHT22;25977;45.462;9.210;2023-04-25T09:53:36;20.90;60.90
40257;DHT22;25977;45.462;9.210;2023-04-25T09:56:12;20.80;61.10
40257;DHT22;25977;45.462;9.210;2023-04-25T09:58:40;20.60;61.80
40257;DHT22;25977;45.462;9.210;2023-04-25T10:01:07;20.60;61.80
40257;DHT22;25977;45.462;9.210;2023-04-25T10:03:43;20.50;62.10
40257;DHT22;25977;45.462;9.210;2023-04-25T10:06:22;20.60;62.20
40257;DHT22;25977;45.462;9.210;2023-04-25T10:08:51;20.70;62.30
40257;DHT22;25977;45.462;9.210;2023-04-25T10:11:19;20.70;62.00
40257;DHT22;25977;45.462;9.210;2023-04-25T10:13:46;20.40;62.20
40257;DHT22;25977;45.462;9.210;2023-04-25T10:16:13;20.30;62.70
40257;DHT22;25977;45.462;9.210;2023-04-25T10:18:39;20.50;62.20
40257;DHT22;25977;45.462;9.210;2023-04-25T10:21:05;20.80;61.60
40257;DHT22;25977;45.462;9.210;2023-04-25T10:23:32;20.90;61.80
40257;DHT22;25977;45.462;9.210;2023-04-25T10:26:00;20.80;61.90
40257;DHT22;25977;45.462;9.210;2023-04-25T10:28:26;21.00;61.80
40257;DHT22;25977;45.462;9.210;2023-04-25T10:31:03;21.00;61.60
40257;DHT22;25977;45.462;9.210;2023-04-25T10:33:37;21.10;61.30
40257;DHT22;25977;45.462;9.210;2023-04-25T10:36:22;21.10;61.50
40257;DHT22;25977;45.462;9.210;2023-04-25T10:38:50;21.20;61.40
40257;DHT22;25977;45.462;9.210;2023-04-25T10:41:18;21.40;60.90
40257;DHT22;25977;45.462;9.210;2023-04-25T10:43:45;21.40;60.80
40257;DHT22;25977;45.462;9.210;2023-04-25T10:46:29;21.40;60.60
40257;DHT22;25977;45.462;9.210;2023-04-25T10:49:00;20.60;61.40
40257;DHT22;25977;45.462;9.210;2023-04-25T10:51:33;20.40;61.60
40257;DHT22;25977;45.462;9.210;2023-04-25T10:54:04;20.10;61.20
40257;DHT22;25977;45.462;9.210;2023-04-25T10:56:36;20.10;61.90
40257;DHT22;25977;45.462;9.210;2023-04-25T10:59:13;20.20;61.30
40257;DHT22;25977;45.462;9.210;2023-04-25T11:01:43;20.40;61.30
40257;DHT22;25977;45.462;9.210;2023-04-25T11:04:31;20.50;61.50
40257;DHT22;25977;45.462;9.210;2023-04-25T11:09:32;20.60;61.70
40257;DHT22;25977;45.462;9.210;2023-04-25T11:11:59;20.70;61.20
40257;DHT22;25977;45.462;9.210;2023-04-25T11:14:26;20.70;59.90
40257;DHT22;25977;45.462;9.210;2023-04-25T11:16:56;20.50;61.10
40257;DHT22;25977;45.462;9.210;2023-04-25T11:19:23;20.70;61.10
40257;DHT22;25977;45.462;9.210;2023-04-25T11:21:49;20.80;61.00
40257;DHT22;25977;45.462;9.210;2023-04-25T11:24:18;20.90;60.20
40257;DHT22;25977;45.462;9.210;2023-04-25T11:26:47;20.90;60.30
40257;DHT22;25977;45.462;9.210;2023-04-25T11:29:13;20.60;60.00
40257;DHT22;25977;45.462;9.210;2023-04-25T11:31:43;20.50;61.40
40257;DHT22;25977;45.462;9.210;2023-04-25T11:34:10;20.60;60.10
40257;DHT22;25977;45.462;9.210;2023-04-25T11:36:38;20.70;60.10
40257;DHT22;25977;45.462;9.210;2023-04-25T11:39:04;20.70;59.50
40257;DHT22;25977;45.462;9.210;2023-04-25T11:41:31;20.20;59.80
40257;DHT22;25977;45.462;9.210;2023-04-25T11:43:57;20.50;60.00
40257;DHT22;25977;45.462;9.210;2023-04-25T11:46:23;20.80;60.10
40257;DHT22;25977;45.462;9.210;2023-04-25T11:48:48;21.00;60.00
40257;DHT22;25977;45.462;9.210;2023-04-25T11:51:16;21.10;59.80
40257;DHT22;25977;45.462;9.210;2023-04-25T11:53:42;21.10;59.10
40257;DHT22;25977;45.462;9.210;2023-04-25T11:56:10;21.20;59.00
40257;DHT22;25977;45.462;9.210;2023-04-25T11:58:57;20.80;58.90
40257;DHT22;25977;45.462;9.210;2023-04-25T12:01:28;20.70;59.90
40257;DHT22;25977;45.462;9.210;2023-04-25T12:03:54;20.30;60.20
40257;DHT22;25977;45.462;9.210;2023-04-25T12:06:19;20.30;60.30
40257;DHT22;25977;45.462;9.210;2023-04-25T12:09:04;20.40;59.80
40257;DHT22;25977;45.462;9.210;2023-04-25T12:11:43;20.50;60.00
40257;DHT22;25977;45.462;9.210;2023-04-25T12:14:10;20.70;59.70
40257;DHT22;25977;45.462;9.210;2023-04-25T12:16:46;20.90;58.80
40257;DHT22;25977;45.462;9.210;2023-04-25T12:19:16;21.00;57.60
40257;DHT22;25977;45.462;9.210;2023-04-25T12:21:43;20.80;58.10
40257;DHT22;25977;45.462;9.210;2023-04-25T12:24:22;20.80;58.70
40257;DHT22;25977;45.462;9.210;2023-04-25T12:27:05;21.00;58.50
40257;DHT22;25977;45.462;9.210;2023-04-25T12:29:32;21.00;57.90
40257;DHT22;25977;45.462;9.210;2023-04-25T12:31:58;20.70;58.80
40257;DHT22;25977;45.462;9.210;2023-04-25T12:34:25;20.80;58.10
40257;DHT22;25977;45.462;9.210;2023-04-25T12:36:52;20.90;57.90
40257;DHT22;25977;45.462;9.210;2023-04-25T12:39:19;21.00;57.80
40257;DHT22;25977;45.462;9.210;2023-04-25T12:41:46;21.00;57.70
40257;DHT22;25977;45.462;9.210;2023-04-25T12:44:12;21.10;57.30
40257;DHT22;25977;45.462;9.210;2023-04-25T12:46:39;21.00;56.70
40257;DHT22;25977;45.462;9.210;2023-04-25T12:49:05;21.00;57.20
40257;DHT22;25977;45.462;9.210;2023-04-25T12:51:33;20.80;57.50
40257;DHT22;25977;45.462;9.210;2023-04-25T12:53:59;20.70;57.90
40257;DHT22;25977;45.462;9.210;2023-04-25T12:56:26;20.70;58.00
40257;DHT22;25977;45.462;9.210;2023-04-25T12:58:53;20.70;57.90
40257;DHT22;25977;45.462;9.210;2023-04-25T13:01:19;20.70;57.70
40257;DHT22;25977;45.462;9.210;2023-04-25T13:03:45;20.70;58.50
40257;DHT22;25977;45.462;9.210;2023-04-25T13:06:11;20.60;58.70
40257;DHT22;25977;45.462;9.210;2023-04-25T13:08:39;20.50;59.40
40257;DHT22;25977;45.462;9.210;2023-04-25T13:11:05;20.00;58.70
40257;DHT22;25977;45.462;9.210;2023-04-25T13:13:31;19.70;61.10
40257;DHT22;25977;45.462;9.210;2023-04-25T13:15:57;19.20;62.20
40257;DHT22;25977;45.462;9.210;2023-04-25T13:18:23;19.00;62.60
40257;DHT22;25977;45.462;9.210;2023-04-25T13:20:52;18.80;63.40
40257;DHT22;25977;45.462;9.210;2023-04-25T13:23:19;18.60;62.20
40257;DHT22;25977;45.462;9.210;2023-04-25T13:25:45;18.80;62.30
40257;DHT22;25977;45.462;9.210;2023-04-25T13:28:11;18.70;62.40
40257;DHT22;25977;45.462;9.210;2023-04-25T13:30:37;19.00;61.30
40257;DHT22;25977;45.462;9.210;2023-04-25T13:33:03;19.10;57.20
40257;DHT22;25977;45.462;9.210;2023-04-25T13:35:30;19.10;55.90
40257;DHT22;25977;45.462;9.210;2023-04-25T13:37:56;19.20;52.20
40257;DHT22;25977;45.462;9.210;2023-04-25T13:40:22;18.90;52.10
40257;DHT22;25977;45.462;9.210;2023-04-25T13:42:47;19.20;52.60
40257;DHT22;25977;45.462;9.210;2023-04-25T13:45:13;18.70;61.00
40257;DHT22;25977;45.462;9.210;2023-04-25T13:47:39;18.90;61.40
40257;DHT22;25977;45.462;9.210;2023-04-25T13:50:05;18.60;62.10
40257;DHT22;25977;45.462;9.210;2023-04-25T13:52:31;18.90;61.80
40257;DHT22;25977;45.462;9.210;2023-04-25T13:54:58;19.10;61.30
40257;DHT22;25977;45.462;9.210;2023-04-25T13:57:24;19.20;61.00
40257;DHT22;25977;45.462;9.210;2023-04-25T13:59:50;19.30;60.50
40257;DHT22;25977;45.462;9.210;2023-04-25T14:02:15;18.90;59.90
40257;DHT22;25977;45.462;9.210;2023-04-25T14:04:41;18.90;59.20
40257;DHT22;25977;45.462;9.210;2023-04-25T14:07:07;18.90;57.80
40257;DHT22;25977;45.462;9.210;2023-04-25T14:09:33;18.90;59.00
40257;DHT22;25977;45.462;9.210;2023-04-25T14:12:00;18.70;59.10
40257;DHT22;25977;45.462;9.210;2023-04-25T14:14:27;19.00;58.90
40257;DHT22;25977;45.462;9.210;2023-04-25T14:16:53;19.20;57.90
40257;DHT22;25977;45.462;9.210;2023-04-25T14:19:22;19.20;56.50
40257;DHT22;25977;45.462;9.210;2023-04-25T14:21:49;19.20;57.30
40257;DHT22;25977;45.462;9.210;2023-04-25T14:24:14;19.10;56.90
40257;DHT22;25977;45.462;9.210;2023-04-25T14:26:41;19.30;56.60
40257;DHT22;25977;45.462;9.210;2023-04-25T14:29:08;19.40;56.20
40257;DHT22;25977;45.462;9.210;2023-04-25T14:31:34;19.60;57.40
40257;DHT22;25977;45.462;9.210;2023-04-25T14:34:01;19.60;57.90
40257;DHT22;25977;45.462;9.210;2023-04-25T14:36:30;19.70;56.40
40257;DHT22;25977;45.462;9.210;2023-04-25T14:38:57;19.30;59.20
40257;DHT22;25977;45.462;9.210;2023-04-25T14:41:24;19.30;59.50
40257;DHT22;25977;45.462;9.210;2023-04-25T14:43:50;19.40;59.00
40257;DHT22;25977;45.462;9.210;2023-04-25T14:46:16;19.30;57.80
40257;DHT22;25977;45.462;9.210;2023-04-25T14:48:42;19.10;57.80
40257;DHT22;25977;45.462;9.210;2023-04-25T14:51:08;18.70;57.10
40257;DHT22;25977;45.462;9.210;2023-04-25T14:53:34;18.70;57.70
40257;DHT22;25977;45.462;9.210;2023-04-25T14:55:59;18.90;57.10
40257;DHT22;25977;45.462;9.210;2023-04-25T14:58:25;19.10;56.70
40257;DHT22;25977;45.462;9.210;2023-04-25T15:00:51;19.20;56.50
40257;DHT22;25977;45.462;9.210;2023-04-25T15:03:17;19.10;57.00
40257;DHT22;25977;45.462;9.210;2023-04-25T15:05:43;19.30;57.00
40257;DHT22;25977;45.462;9.210;2023-04-25T15:08:09;19.20;59.00
40257;DHT22;25977;45.462;9.210;2023-04-25T15:10:36;19.40;59.20
40257;DHT22;25977;45.462;9.210;2023-04-25T15:13:02;19.40;59.50
40257;DHT22;25977;45.462;9.210;2023-04-25T15:15:28;19.50;58.90
40257;DHT22;25977;45.462;9.210;2023-04-25T15:17:55;19.10;59.10
40257;DHT22;25977;45.462;9.210;2023-04-25T15:20:21;19.20;58.80
40257;DHT22;25977;45.462;9.210;2023-04-25T15:22:47;19.20;58.50
40257;DHT22;25977;45.462;9.210;2023-04-25T15:25:15;19.30;59.60
40257;DHT22;25977;45.462;9.210;2023-04-25T15:27:43;19.20;60.00
40257;DHT22;25977;45.462;9.210;2023-04-25T15:30:11;18.90;60.30
40257;DHT22;25977;45.462;9.210;2023-04-25T15:32:38;19.10;60.50
40257;DHT22;25977;45.462;9.210;2023-04-25T15:35:05;19.30;60.30
40257;DHT22;25977;45.462;9.210;2023-04-25T15:37:33;19.20;60.00
40257;DHT22;25977;45.462;9.210;2023-04-25T15:40:08;19.20;60.10
40257;DHT22;25977;45.462;9.210;2023-04-25T15:42:44;19.40;59.80
40257;DHT22;25977;45.462;9.210;2023-04-25T15:45:16;19.40;59.50
40257;DHT22;25977;45.462;9.210;2023-04-25T15:47:43;19.20;59.60
40257;DHT22;25977;45.462;9.210;2023-04-25T15:50:09;19.30;59.40
40257;DHT22;25977;45.462;9.210;2023-04-25T15:52:36;19.20;59.60